createdAt,value
2023-04-01T00:00:58.249Z,1.200
2023-04-01T00:01:57.424Z,1.100
2023-04-01T00:02:58.360Z,1.100
2023-04-01T00:03:58.768Z,1.200
2023-04-01T00:04:58.429Z,1.400
2023-04-01T00:05:57.660Z,1.000
2023-04-01T00:06:57.867Z,1.500
2023-04-01T00:07:58.129Z,1.400
2023-04-01T00:08:57.238Z,1.400
2023-04-01T00:09:57.426Z,1.500
2023-04-01T00:10:57.681Z,1.300
2023-04-01T00:11:57.993Z,1.100
2023-04-01T00:12:58.257Z,1.200
2023-04-01T00:13:57.403Z,1.500
2023-04-01T00:14:57.648Z,1.300
2023-04-01T00:16:00.196Z,1.400
2023-04-01T00:16:57.839Z,1.500
2023-04-01T00:17:58.340Z,1.600
2023-04-01T00:18:57.668Z,1.300
2023-04-01T00:19:57.883Z,1.200
2023-04-01T00:20:58.146Z,1.700
2023-04-01T00:21:57.332Z,1.200
2023-04-01T00:22:57.465Z,1.400
2023-04-01T00:23:57.640Z,1.500
2023-04-01T00:24:58.136Z,1.300
2023-04-01T00:25:58.369Z,1.500
2023-04-01T00:26:57.499Z,1.500
2023-04-01T00:27:57.648Z,1.400
2023-04-01T00:28:57.832Z,1.300
2023-04-01T00:29:58.014Z,1.400
2023-04-01T00:30:58.214Z,1.600
2023-04-01T00:31:57.624Z,1.500
2023-04-01T00:32:58.380Z,1.400
2023-04-01T00:33:57.670Z,1.600
2023-04-01T00:34:57.871Z,1.400
2023-04-01T00:35:58.235Z,1.500
2023-04-01T00:36:57.649Z,1.400
2023-04-01T00:37:57.865Z,1.200
2023-04-01T00:38:58.127Z,1.500
2023-04-01T00:39:57.355Z,1.200
2023-04-01T00:40:57.631Z,1.500
2023-04-01T00:41:57.849Z,1.500
2023-04-01T00:42:58.126Z,1.600
2023-04-01T00:43:57.306Z,1.200
2023-04-01T00:44:57.567Z,1.400
2023-04-01T00:45:57.874Z,1.300
2023-04-01T00:46:58.210Z,1.600
2023-04-01T00:47:57.790Z,1.400
2023-04-01T00:48:58.224Z,1.400
2023-04-01T00:49:57.412Z,1.200
2023-04-01T00:50:57.870Z,1.500
2023-04-01T00:51:58.033Z,1.300
2023-04-01T00:52:58.168Z,1.000
2023-04-01T00:53:57.301Z,1.500
2023-04-01T00:54:57.477Z,1.200
2023-04-01T00:55:57.653Z,1.300
2023-04-01T00:56:57.988Z,1.100
2023-04-01T00:57:58.251Z,1.100
2023-04-01T00:58:57.431Z,1.300
2023-04-01T00:59:57.643Z,1.300
2023-04-01T01:00:58.148Z,0.900
2023-04-01T01:01:57.553Z,1.000
2023-04-01T01:02:58.193Z,1.100
2023-04-01T01:03:57.436Z,1.000
2023-04-01T01:04:57.586Z,1.000
2023-04-01T01:06:04.532Z,1.200
2023-04-01T01:06:57.709Z,1.300
2023-04-01T01:07:57.950Z,1.300
2023-04-01T01:08:58.118Z,1.000
2023-04-01T01:09:58.292Z,0.900
2023-04-01T01:10:57.591Z,1.200
2023-04-01T01:12:01.053Z,1.300
2023-04-01T01:13:57.627Z,1.100
2023-04-01T01:14:57.859Z,1.200
2023-04-01T01:15:57.993Z,1.000
2023-04-01T01:16:58.517Z,1.300
2023-04-01T01:17:58.536Z,1.100
2023-04-01T01:18:57.792Z,1.300
2023-04-01T01:19:58.131Z,1.200
2023-04-01T01:21:01.466Z,0.900
2023-04-01T01:21:57.556Z,1.100
2023-04-01T01:22:57.720Z,0.800
2023-04-01T01:23:57.990Z,1.000
2023-04-01T01:24:58.268Z,1.100
2023-04-01T01:25:57.457Z,1.000
2023-04-01T01:26:57.622Z,1.200
2023-04-01T01:27:57.820Z,1.000
2023-04-01T01:28:58.158Z,1.300
2023-04-01T01:29:57.339Z,1.200
2023-04-01T01:30:57.712Z,1.000
2023-04-01T01:31:58.026Z,0.800
2023-04-01T01:32:59.003Z,1.100
2023-04-01T01:33:59.494Z,1.000
2023-04-01T01:34:59.063Z,0.900
2023-04-01T01:35:57.880Z,1.300
2023-04-01T01:36:58.174Z,1.300
2023-04-01T01:37:57.412Z,0.900
2023-04-01T01:38:57.678Z,1.200
2023-04-01T01:39:57.994Z,1.200
2023-04-01T01:40:58.282Z,1.100
2023-04-01T01:41:57.433Z,1.100
2023-04-01T01:42:57.765Z,1.100
2023-04-01T01:43:58.004Z,1.200
2023-04-01T01:44:58.217Z,1.000
2023-04-01T01:45:57.610Z,1.000
2023-04-01T01:46:57.969Z,1.500
2023-04-01T01:47:58.586Z,1.100
2023-04-01T01:48:57.881Z,1.000
2023-04-01T01:49:58.082Z,0.900
2023-04-01T01:50:57.356Z,1.200
2023-04-01T01:51:57.732Z,1.000
2023-04-01T01:52:57.908Z,0.900
2023-04-01T01:53:58.107Z,1.200
2023-04-01T01:54:58.339Z,0.900
2023-04-01T01:55:57.584Z,1.200
2023-04-01T01:56:57.856Z,1.000
2023-04-01T01:57:58.020Z,1.400
2023-04-01T01:58:58.272Z,1.200
2023-04-01T01:59:57.493Z,1.100
2023-04-01T02:00:57.783Z,1.200
2023-04-01T02:01:58.458Z,1.400
2023-04-01T02:02:58.072Z,1.200
2023-04-01T02:03:58.287Z,1.200
2023-04-01T02:04:57.716Z,1.000
2023-04-01T02:05:58.093Z,0.800
2023-04-01T02:06:58.260Z,1.000
2023-04-01T02:07:57.435Z,0.900
2023-04-01T02:08:57.668Z,1.000
2023-04-01T02:09:57.807Z,1.100
2023-04-01T02:10:58.033Z,1.200
2023-04-01T02:12:57.685Z,1.400
2023-04-01T02:13:57.902Z,1.300
2023-04-01T02:14:58.125Z,1.100
2023-04-01T02:15:57.422Z,1.000
2023-04-01T02:16:57.769Z,1.300
2023-04-01T02:17:58.408Z,1.200
2023-04-01T02:19:58.057Z,1.100
2023-04-01T02:20:58.246Z,1.100
2023-04-01T02:21:57.400Z,1.000
2023-04-01T02:22:57.926Z,1.300
2023-04-01T02:23:58.278Z,1.400
2023-04-01T02:24:57.490Z,1.200
2023-04-01T02:25:57.892Z,1.300
2023-04-01T02:26:58.230Z,1.400
2023-04-01T02:27:57.583Z,1.500
2023-04-01T02:28:57.883Z,1.100
2023-04-01T02:29:58.213Z,1.200
2023-04-01T02:30:57.379Z,1.100
2023-04-01T02:31:57.707Z,1.600
2023-04-01T02:32:58.181Z,0.900
2023-04-01T02:33:57.483Z,1.400
2023-04-01T02:34:57.779Z,0.900
2023-04-01T02:35:58.215Z,1.200
2023-04-01T02:36:57.756Z,0.900
2023-04-01T02:37:58.059Z,1.400
2023-04-01T02:38:58.244Z,1.100
2023-04-01T02:39:57.401Z,1.000
2023-04-01T02:40:57.756Z,1.400
2023-04-01T02:41:58.008Z,1.400
2023-04-01T02:42:58.226Z,1.400
2023-04-01T02:43:57.448Z,1.300
2023-04-01T02:44:57.637Z,1.000
2023-04-01T02:45:58.356Z,0.900
2023-04-01T02:46:57.658Z,1.200
2023-04-01T02:47:58.275Z,1.200
2023-04-01T02:48:57.601Z,1.200
2023-04-01T02:49:57.915Z,1.200
2023-04-01T02:50:58.366Z,1.000
2023-04-01T02:51:57.700Z,1.300
2023-04-01T02:52:58.028Z,1.200
2023-04-01T02:53:58.305Z,1.200
2023-04-01T02:54:57.832Z,1.100
2023-04-01T02:55:58.131Z,1.000
2023-04-01T02:56:57.552Z,1.300
2023-04-01T02:57:57.979Z,1.300
2023-04-01T02:58:58.473Z,1.600
2023-04-01T02:59:57.723Z,1.100
2023-04-01T03:00:58.084Z,1.500
2023-04-01T03:01:57.568Z,1.200
2023-04-01T03:02:58.688Z,1.300
2023-04-01T03:04:57.610Z,1.400
2023-04-01T03:05:57.987Z,0.800
2023-04-01T03:06:58.184Z,1.000
2023-04-01T03:07:57.401Z,1.200
2023-04-01T03:08:57.608Z,0.800
2023-04-01T03:09:57.866Z,1.400
2023-04-01T03:11:00.655Z,1.100
2023-04-01T03:11:57.945Z,1.000
2023-04-01T03:12:58.196Z,1.000
2023-04-01T03:13:57.476Z,0.900
2023-04-01T03:14:57.757Z,1.200
2023-04-01T03:15:57.676Z,1.100
2023-04-01T03:16:58.257Z,1.400
2023-04-01T03:17:57.933Z,1.300
2023-04-01T03:18:58.264Z,1.200
2023-04-01T03:19:57.586Z,1.100
2023-04-01T03:20:57.830Z,1.200
2023-04-01T03:21:58.088Z,1.000
2023-04-01T03:23:00.426Z,1.100
2023-04-01T03:25:58.361Z,1.100
2023-04-01T03:26:57.599Z,0.900
2023-04-01T03:27:57.895Z,0.900
2023-04-01T03:28:58.254Z,1.200
2023-04-01T03:29:57.571Z,1.300
2023-04-01T03:30:58.180Z,1.200
2023-04-01T03:31:58.475Z,1.000
2023-04-01T03:32:57.873Z,1.400
2023-04-01T03:33:58.292Z,1.200
2023-04-01T03:34:57.488Z,1.400
2023-04-01T03:35:57.834Z,0.900
2023-04-01T03:36:58.275Z,1.500
2023-04-01T03:37:57.456Z,1.000
2023-04-01T03:38:57.613Z,1.100
2023-04-01T03:40:00.430Z,0.900
2023-04-01T03:41:57.751Z,1.400
2023-04-01T03:42:58.200Z,1.100
2023-04-01T03:43:57.585Z,1.200
2023-04-01T03:44:57.796Z,1.100
2023-04-01T03:45:58.470Z,1.100
2023-04-01T03:46:57.801Z,0.900
2023-04-01T03:47:58.200Z,0.800
2023-04-01T03:48:57.624Z,1.500
2023-04-01T03:49:57.775Z,1.100
2023-04-01T03:50:58.031Z,1.000
2023-04-01T03:51:58.333Z,1.200
2023-04-01T03:52:57.514Z,1.100
2023-04-01T03:53:57.724Z,1.200
2023-04-01T03:54:58.356Z,1.100
2023-04-01T03:55:57.647Z,1.400
2023-04-01T03:56:57.968Z,1.600
2023-04-01T03:57:58.218Z,0.900
2023-04-01T03:58:57.537Z,1.100
2023-04-01T03:59:57.757Z,0.900
2023-04-01T04:00:57.961Z,1.200
2023-04-01T04:01:58.202Z,1.000
2023-04-01T04:02:57.928Z,1.100
2023-04-01T04:03:57.613Z,1.100
2023-04-01T04:04:58.212Z,1.400
2023-04-01T04:05:57.362Z,0.800
2023-04-01T04:06:57.575Z,1.100
2023-04-01T04:07:57.747Z,1.200
2023-04-01T04:08:58.040Z,1.300
2023-04-01T04:09:58.191Z,0.900
2023-04-01T04:10:57.367Z,1.300
2023-04-01T04:11:57.801Z,1.400
2023-04-01T04:13:58.750Z,1.000
2023-04-01T04:16:57.457Z,1.100
2023-04-01T04:17:58.025Z,1.200
2023-04-01T04:18:58.332Z,1.200
2023-04-01T04:19:57.444Z,1.000
2023-04-01T04:20:57.591Z,0.800
2023-04-01T04:21:57.809Z,1.500
2023-04-01T04:22:58.027Z,1.200
2023-04-01T04:23:58.239Z,1.000
2023-04-01T04:24:57.383Z,0.800
2023-04-01T04:25:57.755Z,1.000
2023-04-01T04:26:57.996Z,1.000
2023-04-01T04:27:58.187Z,1.000
2023-04-01T04:28:57.363Z,1.200
2023-04-01T04:29:57.624Z,1.000
2023-04-01T04:30:57.847Z,1.300
2023-04-01T04:31:58.357Z,1.100
2023-04-01T04:32:57.910Z,1.300
2023-04-01T04:33:58.157Z,1.600
2023-04-01T04:34:57.376Z,1.600
2023-04-01T04:35:57.737Z,1.200
2023-04-01T04:36:58.020Z,1.200
2023-04-01T04:37:58.240Z,1.100
2023-04-01T04:38:57.348Z,1.200
2023-04-01T04:39:57.512Z,1.200
2023-04-01T04:40:57.688Z,1.200
2023-04-01T04:41:58.082Z,1.000
2023-04-01T04:42:58.228Z,1.000
2023-04-01T04:43:57.371Z,1.300
2023-04-01T04:44:57.704Z,1.100
2023-04-01T04:45:57.892Z,1.300
2023-04-01T04:47:00.009Z,1.300
2023-04-01T04:48:57.683Z,1.100
2023-04-01T04:49:57.853Z,1.100
2023-04-01T04:50:58.177Z,1.200
2023-04-01T04:51:57.353Z,1.100
2023-04-01T04:52:57.629Z,1.100
2023-04-01T04:53:57.857Z,1.100
2023-04-01T04:54:58.150Z,1.000
2023-04-01T04:55:57.334Z,1.000
2023-04-01T04:56:57.629Z,1.100
2023-04-01T04:57:57.980Z,1.300
2023-04-01T04:58:58.208Z,1.000
2023-04-01T04:59:57.482Z,0.900
2023-04-01T05:00:57.911Z,1.200
2023-04-01T05:01:58.420Z,1.300
2023-04-01T05:02:58.506Z,0.800
2023-04-01T05:03:58.136Z,1.000
2023-04-01T05:04:57.312Z,1.000
2023-04-01T05:05:57.460Z,1.100
2023-04-01T05:06:58.156Z,1.400
2023-04-01T05:07:57.295Z,1.200
2023-04-01T05:08:57.452Z,1.000
2023-04-01T05:09:57.679Z,1.100
2023-04-01T05:10:57.890Z,0.900
2023-04-01T05:11:58.088Z,0.900
2023-04-01T05:12:58.256Z,1.000
2023-04-01T05:13:57.456Z,0.700
2023-04-01T05:14:57.801Z,1.000
2023-04-01T05:15:58.000Z,1.100
2023-04-01T05:16:58.483Z,1.100
2023-04-01T05:18:57.334Z,1.000
2023-04-01T05:19:57.664Z,0.700
2023-04-01T05:20:57.919Z,0.900
2023-04-01T05:21:58.131Z,1.000
2023-04-01T05:22:58.316Z,0.700
2023-04-01T05:23:57.530Z,1.000
2023-04-01T05:24:57.776Z,1.300
2023-04-01T05:25:58.132Z,0.800
2023-04-01T05:26:58.618Z,0.900
2023-04-01T05:27:57.720Z,1.100
2023-04-01T05:28:57.992Z,1.200
2023-04-01T05:29:58.211Z,1.100
2023-04-01T05:30:57.448Z,0.900
2023-04-01T05:31:57.672Z,1.400
2023-04-01T05:32:58.078Z,0.900
2023-04-01T05:33:57.393Z,0.800
2023-04-01T05:34:57.696Z,1.000
2023-04-01T05:35:58.253Z,1.100
2023-04-01T05:36:57.642Z,1.000
2023-04-01T05:37:57.992Z,1.200
2023-04-01T05:38:58.200Z,0.700
2023-04-01T05:39:57.340Z,1.000
2023-04-01T05:40:57.556Z,1.100
2023-04-01T05:41:57.802Z,1.200
2023-04-01T05:42:57.958Z,1.400
2023-04-01T05:43:58.168Z,1.000
2023-04-01T05:44:57.311Z,1.100
2023-04-01T05:45:57.560Z,1.100
2023-04-01T05:46:58.236Z,1.000
2023-04-01T05:47:57.537Z,0.900
2023-04-01T05:48:57.891Z,0.800
2023-04-01T05:49:58.191Z,1.000
2023-04-01T05:50:57.365Z,0.600
2023-04-01T05:51:57.580Z,1.200
2023-04-01T05:52:57.948Z,1.100
2023-04-01T05:53:58.172Z,1.100
2023-04-01T05:54:57.329Z,1.100
2023-04-01T05:55:57.589Z,1.100
2023-04-01T05:56:57.874Z,1.300
2023-04-01T05:57:58.298Z,2.000
2023-04-01T05:58:57.583Z,4.400
2023-04-01T05:59:57.870Z,2.600
2023-04-01T06:01:10.027Z,7.800
2023-04-01T06:03:01.414Z,6.400
2023-04-01T06:04:01.513Z,7.700
2023-04-01T06:05:01.226Z,4.400
2023-04-01T06:07:00.543Z,1.200
2023-04-01T06:08:00.896Z,0.900
2023-04-01T06:09:01.124Z,0.900
2023-04-01T06:10:00.329Z,0.800
2023-04-01T06:11:00.492Z,0.800
2023-04-01T06:12:00.716Z,1.100
2023-04-01T06:13:00.973Z,0.900
2023-04-01T06:14:01.113Z,0.800
2023-04-01T06:15:00.399Z,1.100
2023-04-01T06:16:00.759Z,0.800
2023-04-01T06:17:01.214Z,1.100
2023-04-01T06:18:02.896Z,0.700
2023-04-01T06:21:00.488Z,1.000
2023-04-01T06:22:00.773Z,0.900
2023-04-01T06:23:00.964Z,0.900
2023-04-01T06:24:01.176Z,0.700
2023-04-01T06:25:00.308Z,0.900
2023-04-01T06:26:00.550Z,0.500
2023-04-01T06:27:00.752Z,0.700
2023-04-01T06:28:01.030Z,0.700
2023-04-01T06:29:01.271Z,0.900
2023-04-01T06:30:00.416Z,0.900
2023-04-01T06:31:00.587Z,0.600
2023-04-01T06:32:01.254Z,0.800
2023-04-01T06:33:00.768Z,0.800
2023-04-01T06:34:01.027Z,0.800
2023-04-01T06:35:01.242Z,0.900
2023-04-01T06:36:00.907Z,0.800
2023-04-01T06:37:01.252Z,0.800
2023-04-01T06:38:00.465Z,0.800
2023-04-01T06:39:00.623Z,0.700
2023-04-01T06:40:00.932Z,0.700
2023-04-01T06:41:01.171Z,0.900
2023-04-01T06:42:00.316Z,0.800
2023-04-01T06:43:00.471Z,0.600
2023-04-01T06:44:00.593Z,0.800
2023-04-01T06:45:00.779Z,0.500
2023-04-01T06:46:01.356Z,1.000
2023-04-01T06:47:00.490Z,0.600
2023-04-01T06:48:02.807Z,0.800
2023-04-01T06:51:00.295Z,0.900
2023-04-01T06:52:00.464Z,0.700
2023-04-01T06:53:00.664Z,0.800
2023-04-01T06:54:01.216Z,0.600
2023-04-01T06:55:00.419Z,0.600
2023-04-01T06:56:00.576Z,0.600
2023-04-01T06:57:01.000Z,0.900
2023-04-01T06:58:01.373Z,0.800
2023-04-01T06:59:00.589Z,0.900
2023-04-01T07:00:00.735Z,0.700
2023-04-01T07:01:01.091Z,0.600
2023-04-01T07:02:00.481Z,0.700
2023-04-01T07:03:00.934Z,0.600
2023-04-01T07:04:01.053Z,0.900
2023-04-01T07:05:01.426Z,0.700
2023-04-01T07:06:00.520Z,1.000
2023-04-01T07:07:00.636Z,0.600
2023-04-01T07:08:01.015Z,0.700
2023-04-01T07:09:02.312Z,0.700
2023-04-01T07:10:00.802Z,0.600
2023-04-01T07:11:01.152Z,0.600
2023-04-01T07:12:00.234Z,0.800
2023-04-01T07:13:00.695Z,0.800
2023-04-01T07:14:00.996Z,0.700
2023-04-01T07:15:01.261Z,0.500
2023-04-01T07:16:00.430Z,0.500
2023-04-01T07:17:00.995Z,0.500
2023-04-01T07:18:00.491Z,0.800
2023-04-01T07:19:00.818Z,1.000
2023-04-01T07:20:01.369Z,0.700
2023-04-01T07:21:00.729Z,0.800
2023-04-01T07:22:00.932Z,0.900
2023-04-01T07:23:00.468Z,0.800
2023-04-01T07:24:00.847Z,0.900
2023-04-01T07:25:01.069Z,0.700
2023-04-01T07:26:01.415Z,0.900
2023-04-01T07:27:01.289Z,1.000
2023-04-01T07:28:00.507Z,0.800
2023-04-01T07:29:00.670Z,0.700
2023-04-01T07:30:00.862Z,0.600
2023-04-01T07:31:01.269Z,0.700
2023-04-01T07:32:00.482Z,0.900
2023-04-01T07:33:00.743Z,0.800
2023-04-01T07:34:01.232Z,0.900
2023-04-01T07:35:00.513Z,0.900
2023-04-01T07:36:00.907Z,0.700
2023-04-01T07:37:01.114Z,0.700
2023-04-01T07:38:01.343Z,1.000
2023-04-01T07:39:00.865Z,0.800
2023-04-01T07:40:01.143Z,0.700
2023-04-01T07:41:00.304Z,1.000
2023-04-01T07:42:00.690Z,0.900
2023-04-01T07:43:00.805Z,1.000
2023-04-01T07:44:01.064Z,0.700
2023-04-01T07:45:01.245Z,1.100
2023-04-01T07:46:00.495Z,0.900
2023-04-01T07:47:01.169Z,1.000
2023-04-01T07:48:00.455Z,0.900
2023-04-01T07:49:01.205Z,0.800
2023-04-01T07:50:00.303Z,1.100
2023-04-01T07:51:01.666Z,0.900
2023-04-01T07:52:00.772Z,1.000
2023-04-01T07:53:00.924Z,0.800
2023-04-01T07:54:01.093Z,0.800
2023-04-01T07:55:01.310Z,1.000
2023-04-01T07:57:05.946Z,1.000
2023-04-01T07:58:01.928Z,0.900
2023-04-01T07:59:01.188Z,0.800
2023-04-01T08:00:00.443Z,0.800
2023-04-01T08:01:00.604Z,0.800
2023-04-01T08:02:00.820Z,1.000
2023-04-01T08:03:01.655Z,0.900
2023-04-01T08:04:02.066Z,1.000
2023-04-01T08:05:00.656Z,0.600
2023-04-01T08:06:02.794Z,0.900
2023-04-01T08:08:00.279Z,0.800
2023-04-01T08:09:00.407Z,1.000
2023-04-01T08:10:00.557Z,0.800
2023-04-01T08:11:00.773Z,1.100
2023-04-01T08:12:01.161Z,0.900
2023-04-01T08:13:00.255Z,1.100
2023-04-01T08:14:00.572Z,0.700
2023-04-01T08:15:00.715Z,0.900
2023-04-01T08:16:00.983Z,0.800
2023-04-01T08:17:01.338Z,0.900
2023-04-01T08:18:00.644Z,0.700
2023-04-01T08:19:00.973Z,0.700
2023-04-01T08:20:01.185Z,0.800
2023-04-01T08:21:00.304Z,0.700
2023-04-01T08:22:00.435Z,0.900
2023-04-01T08:23:00.595Z,0.800
2023-04-01T08:24:00.836Z,1.000
2023-04-01T08:25:06.125Z,0.700
2023-04-01T08:26:01.298Z,0.700
2023-04-01T08:27:00.476Z,0.600
2023-04-01T08:28:00.731Z,0.500
2023-04-01T08:29:01.039Z,0.800
2023-04-01T08:30:01.212Z,0.800
2023-04-01T08:31:00.398Z,0.900
2023-04-01T08:32:00.830Z,0.800
2023-04-01T08:33:01.587Z,1.200
2023-04-01T08:34:00.923Z,0.700
2023-04-01T08:35:01.122Z,0.700
2023-04-01T08:36:00.714Z,0.600
2023-04-01T08:37:00.913Z,0.900
2023-04-01T08:38:01.080Z,0.900
2023-04-01T08:39:01.289Z,1.000
2023-04-01T08:40:00.424Z,0.700
2023-04-01T08:41:00.564Z,0.700
2023-04-01T08:42:00.813Z,0.700
2023-04-01T08:43:00.984Z,1.000
2023-04-01T08:44:01.151Z,0.700
2023-04-01T08:45:00.361Z,1.000
2023-04-01T08:46:00.944Z,0.800
2023-04-01T08:47:01.303Z,0.600
2023-04-01T08:48:00.745Z,0.600
2023-04-01T08:49:01.056Z,0.600
2023-04-01T08:50:01.181Z,0.400
2023-04-01T08:51:00.317Z,0.600
2023-04-01T08:52:00.507Z,0.400
2023-04-01T08:53:00.655Z,0.600
2023-04-01T08:54:00.823Z,1.200
2023-04-01T08:55:01.002Z,1.000
2023-04-01T08:56:01.232Z,1.400
2023-04-01T08:57:00.411Z,0.800
2023-04-01T08:58:00.698Z,0.800
2023-04-01T08:59:00.881Z,0.500
2023-04-01T09:00:01.914Z,0.800
2023-04-01T09:01:01.303Z,0.700
2023-04-01T09:02:00.486Z,0.900
2023-04-01T09:03:01.532Z,0.600
2023-04-01T09:04:01.973Z,0.600
2023-04-01T09:05:00.362Z,0.700
2023-04-01T09:06:00.520Z,0.800
2023-04-01T09:07:00.758Z,0.700
2023-04-01T09:08:00.936Z,0.800
2023-04-01T09:09:01.141Z,0.800
2023-04-01T09:10:00.281Z,1.000
2023-04-01T09:11:00.544Z,0.900
2023-04-01T09:12:00.922Z,0.400
2023-04-01T09:13:01.209Z,0.500
2023-04-01T09:14:00.365Z,0.400
2023-04-01T09:15:00.573Z,0.500
2023-04-01T09:16:01.076Z,0.500
2023-04-01T09:17:00.384Z,0.400
2023-04-01T09:18:00.721Z,0.500
2023-04-01T09:19:00.993Z,0.400
2023-04-01T09:20:01.161Z,0.900
2023-04-01T09:21:00.331Z,0.500
2023-04-01T09:22:00.515Z,0.400
2023-04-01T09:23:00.839Z,0.600
2023-04-01T09:24:01.012Z,0.600
2023-04-01T09:25:01.358Z,0.600
2023-04-01T09:26:00.451Z,0.400
2023-04-01T09:27:01.310Z,0.500
2023-04-01T09:28:00.395Z,0.500
2023-04-01T09:29:00.671Z,0.600
2023-04-01T09:30:00.856Z,0.900
2023-04-01T09:31:01.112Z,0.900
2023-04-01T09:32:00.302Z,0.800
2023-04-01T09:33:00.599Z,0.800
2023-04-01T09:34:00.994Z,0.500
2023-04-01T09:35:01.212Z,0.500
2023-04-01T09:36:00.488Z,0.500
2023-04-01T09:37:00.602Z,0.400
2023-04-01T09:38:00.754Z,0.400
2023-04-01T09:39:00.939Z,0.400
2023-04-01T09:40:01.096Z,0.400
2023-04-01T09:41:01.339Z,0.500
2023-04-01T09:42:00.509Z,0.400
2023-04-01T09:43:00.812Z,0.400
2023-04-01T09:44:00.977Z,0.500
2023-04-01T09:45:01.154Z,0.400
2023-04-01T09:46:00.357Z,0.600
2023-04-01T09:47:01.013Z,0.300
2023-04-01T09:48:01.562Z,0.400
2023-04-01T09:49:00.705Z,0.500
2023-04-01T09:50:00.871Z,0.400
2023-04-01T09:51:00.999Z,0.500
2023-04-01T09:52:01.104Z,0.700
2023-04-01T09:53:02.544Z,0.500
2023-04-01T09:56:01.154Z,0.500
2023-04-01T09:57:00.320Z,0.300
2023-04-01T09:58:00.604Z,0.700
2023-04-01T10:00:00.644Z,0.500
2023-04-01T10:01:00.823Z,0.500
2023-04-01T10:02:01.237Z,0.500
2023-04-01T10:03:00.752Z,0.600
2023-04-01T10:04:01.072Z,0.500
2023-04-01T10:05:01.445Z,0.400
2023-04-01T10:06:00.791Z,0.500
2023-04-01T10:07:01.029Z,0.700
2023-04-01T10:08:01.248Z,0.500
2023-04-01T10:09:00.391Z,0.400
2023-04-01T10:10:00.513Z,0.400
2023-04-01T10:11:00.729Z,0.500
2023-04-01T10:12:00.943Z,0.400
2023-04-01T10:13:01.099Z,0.300
2023-04-01T10:14:00.424Z,0.500
2023-04-01T10:15:00.624Z,0.400
2023-04-01T10:16:00.862Z,0.200
2023-04-01T10:17:01.375Z,0.500
2023-04-01T10:18:00.615Z,0.400
2023-04-01T10:19:00.939Z,0.400
2023-04-01T10:20:01.252Z,0.400
2023-04-01T10:21:00.463Z,0.500
2023-04-01T10:22:00.627Z,0.500
2023-04-01T10:23:00.859Z,0.500
2023-04-01T10:24:01.123Z,0.400
2023-04-01T10:25:01.670Z,0.600
2023-04-01T10:26:00.927Z,0.400
2023-04-01T10:27:01.120Z,0.400
2023-04-01T10:28:01.411Z,0.300
2023-04-01T10:29:00.591Z,0.500
2023-04-01T10:30:00.885Z,0.500
2023-04-01T10:31:01.104Z,0.600
2023-04-01T10:32:01.561Z,0.500
2023-04-01T10:33:00.941Z,0.400
2023-04-01T10:34:01.251Z,0.500
2023-04-01T10:35:00.384Z,0.400
2023-04-01T10:36:00.720Z,1.400
2023-04-01T10:37:01.049Z,0.900
2023-04-01T10:38:01.238Z,0.600
2023-04-01T10:39:00.389Z,0.600
2023-04-01T10:40:00.800Z,0.500
2023-04-01T10:41:00.944Z,1.200
2023-04-01T10:42:01.219Z,0.600
2023-04-01T10:43:00.380Z,0.500
2023-04-01T10:44:00.649Z,0.600
2023-04-01T10:45:00.920Z,0.700
2023-04-01T10:46:01.431Z,0.700
2023-04-01T10:47:00.791Z,0.900
2023-04-01T10:48:01.377Z,0.900
2023-04-01T10:49:00.711Z,0.500
2023-04-01T10:50:01.626Z,0.900
2023-04-01T10:51:00.838Z,0.800
2023-04-01T10:52:01.019Z,0.600
2023-04-01T10:53:01.244Z,0.500
2023-04-01T10:54:00.583Z,0.500
2023-04-01T10:55:00.851Z,0.500
2023-04-01T10:56:01.071Z,0.700
2023-04-01T10:57:00.358Z,0.600
2023-04-01T10:58:00.808Z,0.600
2023-04-01T10:59:01.024Z,0.800
2023-04-01T11:00:01.233Z,0.600
2023-04-01T11:01:00.557Z,0.800
2023-04-01T11:02:11.146Z,0.600
2023-04-01T11:04:01.667Z,0.600
2023-04-01T11:05:00.826Z,0.800
2023-04-01T11:06:00.971Z,0.800
2023-04-01T11:07:01.245Z,0.500
2023-04-01T11:08:08.447Z,0.700
2023-04-01T11:10:00.853Z,0.600
2023-04-01T11:11:01.087Z,0.600
2023-04-01T11:12:01.321Z,0.700
2023-04-01T11:13:00.606Z,0.800
2023-04-01T11:14:00.856Z,0.900
2023-04-01T11:15:01.223Z,0.900
2023-04-01T11:16:00.703Z,0.600
2023-04-01T11:17:01.320Z,0.800
2023-04-01T11:18:00.695Z,0.600
2023-04-01T11:19:00.935Z,0.700
2023-04-01T11:20:01.194Z,1.000
2023-04-01T11:21:00.380Z,0.900
2023-04-01T11:22:01.414Z,0.900
2023-04-01T11:23:00.606Z,0.800
2023-04-01T11:24:10.611Z,0.800
2023-04-01T11:26:00.875Z,0.800
2023-04-01T11:27:01.364Z,0.900
2023-04-01T11:28:00.499Z,0.800
2023-04-01T11:29:00.729Z,0.700
2023-04-01T11:30:10.713Z,0.900
2023-04-01T11:32:01.309Z,0.800
2023-04-01T11:33:00.676Z,0.700
2023-04-01T11:34:00.913Z,0.700
2023-04-01T11:35:01.085Z,0.700
2023-04-01T11:36:01.304Z,0.800
2023-04-01T11:37:00.722Z,0.800
2023-04-01T11:38:00.940Z,0.700
2023-04-01T11:39:01.086Z,0.700
2023-04-01T11:40:01.318Z,0.600
2023-04-01T11:41:00.415Z,0.700
2023-04-01T11:42:00.689Z,0.400
2023-04-01T11:43:00.911Z,0.600
2023-04-01T11:44:05.987Z,0.800
2023-04-01T11:45:01.123Z,0.600
2023-04-01T11:46:01.339Z,0.600
2023-04-01T11:47:00.755Z,0.500
2023-04-01T11:48:01.307Z,0.800
2023-04-01T11:49:03.071Z,0.500
2023-04-01T11:50:01.724Z,0.500
2023-04-01T11:51:00.998Z,1.200
2023-04-01T11:52:01.206Z,0.800
2023-04-01T11:55:00.979Z,0.600
2023-04-01T11:56:01.196Z,0.600
2023-04-01T11:57:00.649Z,0.600
2023-04-01T11:58:00.957Z,0.700
2023-04-01T11:59:01.492Z,0.400
2023-04-01T12:00:00.701Z,0.400
2023-04-01T12:01:00.860Z,0.500
2023-04-01T12:02:01.315Z,0.400
2023-04-01T12:03:00.999Z,0.300
2023-04-01T12:04:01.174Z,0.500
2023-04-01T12:05:01.135Z,0.700
2023-04-01T12:06:00.245Z,0.900
2023-04-01T12:07:00.441Z,0.700
2023-04-01T12:08:03.496Z,0.700
2023-04-01T12:11:01.128Z,0.900
2023-04-01T12:12:00.372Z,0.800
2023-04-01T12:13:10.370Z,0.600
2023-04-01T12:15:00.756Z,0.900
2023-04-01T12:16:00.982Z,0.700
2023-04-01T12:17:01.599Z,0.400
2023-04-01T12:18:01.037Z,0.800
2023-04-01T12:19:01.380Z,0.700
2023-04-01T12:20:00.511Z,0.600
2023-04-01T12:21:00.878Z,0.400
2023-04-01T12:22:01.092Z,0.400
2023-04-01T12:23:00.327Z,0.400
2023-04-01T12:24:00.462Z,0.400
2023-04-01T12:25:00.633Z,0.400
2023-04-01T12:26:00.789Z,0.400
2023-04-01T12:27:01.030Z,0.600
2023-04-01T12:28:01.297Z,0.500
2023-04-01T12:29:00.469Z,0.400
2023-04-01T12:30:00.665Z,0.600
2023-04-01T12:31:00.890Z,0.900
2023-04-01T12:32:01.379Z,0.700
2023-04-01T12:33:00.888Z,0.500
2023-04-01T12:34:01.104Z,0.800
2023-04-01T12:35:01.274Z,0.900
2023-04-01T12:36:00.456Z,0.500
2023-04-01T12:37:00.673Z,1.200
2023-04-01T12:38:00.815Z,0.800
2023-04-01T12:39:01.154Z,0.900
2023-04-01T12:40:00.263Z,0.700
2023-04-01T12:41:00.533Z,0.700
2023-04-01T12:42:00.877Z,1.000
2023-04-01T12:43:01.079Z,0.400
2023-04-01T12:44:01.300Z,0.400
2023-04-01T12:45:00.516Z,0.700
2023-04-01T12:46:00.849Z,0.500
2023-04-01T12:47:01.355Z,0.400
2023-04-01T12:48:00.749Z,0.700
2023-04-01T12:49:00.996Z,0.800
2023-04-01T12:50:01.249Z,0.500
2023-04-01T12:51:00.428Z,0.600
2023-04-01T12:52:00.585Z,0.600
2023-04-01T12:53:00.736Z,0.600
2023-04-01T12:54:00.880Z,0.700
2023-04-01T12:55:02.631Z,0.700
2023-04-01T12:56:01.058Z,0.600
2023-04-01T12:57:01.343Z,0.800
2023-04-01T12:58:00.588Z,0.600
2023-04-01T12:59:00.757Z,1.100
2023-04-01T13:00:01.095Z,0.700
2023-04-01T13:01:02.403Z,1.200
2023-04-01T13:02:00.881Z,0.500
2023-04-01T13:03:01.111Z,0.800
2023-04-01T13:04:00.789Z,1.000
2023-04-01T13:05:01.132Z,0.800
2023-04-01T13:06:00.512Z,0.700
2023-04-01T13:07:00.989Z,0.900
2023-04-01T13:08:01.118Z,0.900
2023-04-01T13:09:00.235Z,0.600
2023-04-01T13:10:04.839Z,0.700
2023-04-01T13:12:01.187Z,0.500
2023-04-01T13:13:00.601Z,0.600
2023-04-01T13:14:00.955Z,0.600
2023-04-01T13:15:07.843Z,0.700
2023-04-01T13:16:01.076Z,0.600
2023-04-01T13:17:01.272Z,0.600
2023-04-01T13:18:00.564Z,1.100
2023-04-01T13:19:00.772Z,1.100
2023-04-01T13:20:10.895Z,1.100
2023-04-01T13:22:01.244Z,0.900
2023-04-01T13:23:00.420Z,0.600
2023-04-01T13:24:00.602Z,0.700
2023-04-01T13:25:00.749Z,0.600
2023-04-01T13:26:13.419Z,0.700
2023-04-01T13:28:01.791Z,0.600